createdAt,value
2022-09-10T00:00:40.508Z,7.03
2022-09-10T00:04:40.566Z,6.9
2022-09-10T00:08:41.125Z,6.8
2022-09-10T00:12:40.530Z,6.32
2022-09-10T00:16:40.613Z,7.25
2022-09-10T00:20:40.457Z,7.78
2022-09-10T00:24:40.465Z,6.35
2022-09-10T00:28:40.788Z,6.62
2022-09-10T00:32:40.396Z,7.18
2022-09-10T00:36:40.440Z,6.47
2022-09-10T00:40:40.557Z,7.85
2022-09-10T00:44:40.127Z,7.05
2022-09-10T00:48:40.433Z,6.3
2022-09-10T00:52:40.553Z,6.85
2022-09-10T00:56:40.689Z,7.47
2022-09-10T01:00:40.538Z,6.8
2022-09-10T01:04:40.217Z,6.65
2022-09-10T01:08:40.884Z,7.37
2022-09-10T01:12:40.548Z,7.03
2022-09-10T01:16:40.900Z,6.75
2022-09-10T01:20:40.512Z,6.03
2022-09-10T01:24:40.724Z,6.9
2022-09-10T01:28:40.502Z,6.97
2022-09-10T01:32:40.571Z,5.97
2022-09-10T01:36:41.093Z,5.68
2022-09-10T01:40:40.463Z,6.82
2022-09-10T01:44:40.496Z,6.18
2022-09-10T01:48:40.328Z,6.8
2022-09-10T01:52:40.482Z,7.7
2022-09-10T01:56:40.474Z,6.1
2022-09-10T02:00:39.591Z,6.78
2022-09-10T02:04:40.538Z,8
2022-09-10T02:08:40.429Z,6.82
2022-09-10T02:12:40.465Z,7.05
2022-09-10T02:16:40.324Z,7.85
2022-09-10T02:20:40.485Z,7.07
2022-09-10T02:24:40.545Z,8.32
2022-09-10T02:28:40.253Z,6.78
2022-09-10T02:32:41.181Z,7.4
2022-09-10T02:36:40.520Z,6.85
2022-09-10T02:40:40.549Z,6.47
2022-09-10T02:44:40.469Z,6.45
2022-09-10T02:48:40.474Z,5.37
2022-09-10T02:52:40.427Z,5.65
2022-09-10T02:56:40.443Z,6.53
2022-09-10T03:00:40.440Z,5.5
2022-09-10T03:04:40.564Z,7.28
2022-09-10T03:08:40.654Z,6.07
2022-09-10T03:12:40.499Z,5.93
2022-09-10T03:16:40.635Z,5.8
2022-09-10T03:20:40.527Z,5.35
2022-09-10T03:24:40.553Z,5.75
2022-09-10T03:28:40.643Z,6.35
2022-09-10T03:32:40.162Z,6.2
2022-09-10T03:36:40.686Z,6.2
2022-09-10T03:40:40.625Z,6.18
2022-09-10T03:44:39.374Z,6.53
2022-09-10T03:48:40.649Z,5.45
2022-09-10T03:52:40.493Z,5.5
2022-09-10T03:56:40.445Z,5.78
2022-09-10T04:00:40.485Z,5.82
2022-09-10T04:04:40.651Z,6.45
2022-09-10T04:08:40.623Z,5.6
2022-09-10T04:12:40.416Z,5.55
2022-09-10T04:16:41.087Z,6.62
2022-09-10T04:20:40.625Z,6.28
2022-09-10T04:24:40.505Z,5.95
2022-09-10T04:28:40.551Z,6.93
2022-09-10T04:32:39.334Z,6.57
2022-09-10T04:36:40.999Z,7.82
2022-09-10T04:40:40.746Z,6.15
2022-09-10T04:44:40.418Z,6.65
2022-09-10T04:48:40.557Z,6.87
2022-09-10T04:52:40.723Z,7.62
2022-09-10T04:56:39.586Z,6.12
2022-09-10T05:00:40.812Z,7.22
2022-09-10T05:04:40.642Z,7.28
2022-09-10T05:08:40.733Z,7.03
2022-09-10T05:12:40.505Z,6.45
2022-09-10T05:16:40.569Z,5.45
2022-09-10T05:20:40.408Z,4.95
2022-09-10T05:24:40.488Z,4.6
2022-09-10T05:28:40.588Z,4.03
2022-09-10T05:32:40.473Z,4.47
2022-09-10T05:36:40.469Z,3.83
2022-09-10T05:40:40.622Z,2.8
2022-09-10T05:44:40.465Z,2.92
2022-09-10T05:48:41.811Z,2.05
2022-09-10T05:52:40.848Z,2
2022-09-10T05:56:39.872Z,1.25
2022-09-10T06:00:41.074Z,1.12
2022-09-10T06:04:40.477Z,1.33
2022-09-10T06:08:40.979Z,1.8
2022-09-10T06:12:40.447Z,4.22
2022-09-10T06:16:40.722Z,4.6
2022-09-10T06:20:40.547Z,0.9
2022-09-10T06:24:40.889Z,0.95
2022-09-10T06:28:40.620Z,1.1
2022-09-10T06:32:40.431Z,1
2022-09-10T06:36:40.470Z,0.95
2022-09-10T06:40:40.448Z,0.8
2022-09-10T06:44:40.494Z,1.08
2022-09-10T06:48:44.423Z,0.93
2022-09-10T06:52:40.463Z,1.33
2022-09-10T06:56:40.945Z,1.15
2022-09-10T07:00:41.420Z,1.12
2022-09-10T07:04:40.473Z,0.85
2022-09-10T07:08:40.699Z,0.68
2022-09-10T07:12:40.498Z,0.9
2022-09-10T07:16:40.512Z,0.88
2022-09-10T07:20:40.527Z,1.25
2022-09-10T07:24:40.645Z,0.88
2022-09-10T07:28:40.550Z,1.4
2022-09-10T07:32:40.788Z,0.77
2022-09-10T07:36:40.519Z,0.9
2022-09-10T07:40:41.177Z,1.55
2022-09-10T07:44:40.784Z,0.8
2022-09-10T07:48:41.003Z,1.08
2022-09-10T07:52:40.466Z,0.77
2022-09-10T07:56:39.363Z,0.93
2022-09-10T08:00:40.892Z,0.6
2022-09-10T08:04:40.409Z,0.8
2022-09-10T08:08:40.559Z,0.8
2022-09-10T08:12:40.865Z,1
2022-09-10T08:16:44.279Z,1
2022-09-10T08:20:40.487Z,0.9
2022-09-10T08:24:40.418Z,1.17
2022-09-10T08:28:40.834Z,0.7
2022-09-10T08:32:40.591Z,1.2
2022-09-10T08:36:40.586Z,0.82
2022-09-10T08:40:40.690Z,0.9
2022-09-10T08:44:40.625Z,0.88
2022-09-10T08:48:40.721Z,1.15
2022-09-10T08:52:40.856Z,0.9
2022-09-10T08:56:40.302Z,0.8
2022-09-10T09:00:40.753Z,1.17
2022-09-10T09:04:40.403Z,1
2022-09-10T09:08:41.141Z,1.1
2022-09-10T09:12:41.074Z,0.6
2022-09-10T09:16:39.841Z,1.2
2022-09-10T09:20:40.896Z,0.77
2022-09-10T09:24:41.027Z,1.48
2022-09-10T09:28:40.508Z,0.93
2022-09-10T09:32:40.937Z,0.7
2022-09-10T09:36:39.500Z,0.68
2022-09-10T09:40:40.830Z,0.9
2022-09-10T09:44:40.463Z,0.7
2022-09-10T09:48:40.650Z,0.7
2022-09-10T09:52:40.807Z,0.8
2022-09-10T09:56:40.484Z,0.7
2022-09-10T10:00:40.643Z,0.9
2022-09-10T10:04:42.248Z,0.75
2022-09-10T10:08:40.596Z,1
2022-09-10T10:12:41.174Z,0.68
2022-09-10T10:16:40.273Z,0.93
2022-09-10T10:20:40.537Z,0.75
2022-09-10T10:24:40.538Z,0.75
2022-09-10T10:28:40.621Z,0.82
2022-09-10T10:32:41.031Z,0.62
2022-09-10T10:36:40.530Z,0.9
2022-09-10T10:40:40.621Z,0.7
2022-09-10T10:44:40.433Z,0.8
2022-09-10T10:48:40.518Z,0.6
2022-09-10T10:52:40.496Z,0.6
2022-09-10T10:56:40.807Z,0.6
2022-09-10T11:00:41.357Z,0.7
2022-09-10T11:04:40.469Z,0.7
2022-09-10T11:08:40.628Z,0.6
2022-09-10T11:12:40.769Z,0.73
2022-09-10T11:16:40.679Z,0.6
2022-09-10T11:20:40.545Z,1
2022-09-10T11:24:40.513Z,0.7
2022-09-10T11:28:40.537Z,0.7
2022-09-10T11:32:40.323Z,3.47
2022-09-10T11:36:39.672Z,2.2
2022-09-10T11:40:40.800Z,1.7
2022-09-10T11:44:40.449Z,1.77
2022-09-10T11:48:40.692Z,1.73
2022-09-10T11:52:39.748Z,1.48
2022-09-10T11:56:40.843Z,1.3
2022-09-10T12:00:40.542Z,2.05
2022-09-10T12:04:44.596Z,1.35
2022-09-10T12:08:40.415Z,1.2
2022-09-10T12:12:40.576Z,1.27
2022-09-10T12:16:39.806Z,1.1
2022-09-10T12:20:40.728Z,1.2
2022-09-10T12:24:40.528Z,1.37
2022-09-10T12:28:40.774Z,1.65
2022-09-10T12:32:40.459Z,1.45
2022-09-10T12:36:40.639Z,1.58
2022-09-10T12:40:40.583Z,1.55
2022-09-10T12:44:40.438Z,2
2022-09-10T12:48:40.592Z,1.92
2022-09-10T12:52:40.483Z,1.6
2022-09-10T12:56:40.513Z,1.95
2022-09-10T13:00:41.062Z,1.7
2022-09-10T13:04:40.715Z,1.8
2022-09-10T13:08:40.622Z,1.3
2022-09-10T13:12:40.143Z,1.3
2022-09-10T13:16:40.571Z,1.12
2022-09-10T13:20:40.654Z,1.25
2022-09-10T13:24:40.626Z,1.5
2022-09-10T13:28:40.683Z,1
2022-09-10T13:32:40.528Z,1.17
2022-09-10T13:36:40.017Z,1.23
2022-09-10T13:40:40.782Z,0.77
2022-09-10T13:44:40.924Z,0.77
2022-09-10T13:48:40.468Z,1.02
2022-09-10T13:52:40.604Z,0.8
2022-09-10T13:56:39.926Z,0.7
2022-09-10T14:00:41.040Z,0.73
2022-09-10T14:04:44.747Z,0.85
2022-09-10T14:08:40.502Z,0.7
2022-09-10T14:12:40.365Z,0.95
2022-09-10T14:16:39.991Z,0.93
2022-09-10T14:20:40.620Z,1.2
2022-09-10T14:24:40.451Z,1.27
2022-09-10T14:28:40.633Z,1
2022-09-10T14:32:39.591Z,1.35
2022-09-10T14:36:40.562Z,1.23
2022-09-10T14:40:40.560Z,0.98
2022-09-10T14:44:40.923Z,1
2022-09-10T14:48:40.653Z,0.6
2022-09-10T14:52:40.720Z,1.08
2022-09-10T14:56:40.730Z,0.93
2022-09-10T15:00:40.648Z,0.85
2022-09-10T15:04:40.595Z,1.17
2022-09-10T15:08:40.441Z,0.95
2022-09-10T15:12:40.416Z,1.12
2022-09-10T15:16:40.524Z,0.98
2022-09-10T15:20:40.532Z,1.12
2022-09-10T15:25:05.493Z,1.27
2022-09-10T15:28:40.485Z,1.37
2022-09-10T15:32:41.058Z,1.2
2022-09-10T15:36:40.551Z,1.4
2022-09-10T15:40:40.512Z,1.3
2022-09-10T15:44:40.473Z,1.17
2022-09-10T15:48:40.707Z,1.37
2022-09-10T15:52:40.451Z,1.17
2022-09-10T15:56:40.520Z,0.85
2022-09-10T16:00:40.547Z,0.7
2022-09-10T16:04:43.091Z,1.12
2022-09-10T16:08:40.486Z,0.9
2022-09-10T16:12:41.026Z,0.68
2022-09-10T16:16:40.637Z,0.32
2022-09-10T16:20:40.672Z,0.7
2022-09-10T16:24:40.484Z,0.75
2022-09-10T16:28:40.600Z,0.55
2022-09-10T16:32:40.476Z,0.55
2022-09-10T16:36:40.420Z,0.98
2022-09-10T16:40:40.654Z,0.88
2022-09-10T16:44:40.931Z,0.5
2022-09-10T16:48:40.551Z,0.6
2022-09-10T16:52:40.751Z,0.98
2022-09-10T16:56:40.103Z,0.6
2022-09-10T17:00:40.467Z,1.08
2022-09-10T17:04:40.527Z,0.98
2022-09-10T17:08:40.590Z,1.15
2022-09-10T17:12:40.432Z,1.37
2022-09-10T17:16:40.753Z,1.4
2022-09-10T17:20:40.533Z,1.02
2022-09-10T17:24:41.091Z,1.45
2022-09-10T17:28:40.667Z,1.4
2022-09-10T17:32:40.946Z,1.48
2022-09-10T17:36:41.119Z,1.7
2022-09-10T17:40:40.793Z,1.7
2022-09-10T17:44:40.511Z,1.4
2022-09-10T17:48:39.696Z,0.95
2022-09-10T17:52:40.538Z,1.2
2022-09-10T17:56:40.722Z,0.85
2022-09-10T18:00:40.567Z,0.98
2022-09-10T18:04:40.312Z,1.4
2022-09-10T18:08:40.601Z,1.3
2022-09-10T18:12:40.758Z,1.42
2022-09-10T18:16:40.561Z,1
2022-09-10T18:20:40.595Z,1.2
2022-09-10T18:24:40.767Z,2.15
2022-09-10T18:28:40.617Z,1.9
2022-09-10T18:32:40.294Z,2.45
2022-09-10T18:36:40.775Z,2
2022-09-10T18:40:40.546Z,2.1
2022-09-10T18:44:40.514Z,1.7
2022-09-10T18:48:40.573Z,1.8
2022-09-10T18:52:40.634Z,2.45
2022-09-10T18:56:40.675Z,2.2
2022-09-10T19:00:40.490Z,1.62
2022-09-10T19:04:54.611Z,1.9
2022-09-10T19:08:40.475Z,1.62
2022-09-10T19:12:40.526Z,1.85
2022-09-10T19:16:40.491Z,1.62
2022-09-10T19:20:40.725Z,1.6
2022-09-10T19:24:56.335Z,1.73
2022-09-10T19:28:40.500Z,2.37
2022-09-10T19:32:40.870Z,1.9
2022-09-10T19:36:40.418Z,1.9
2022-09-10T19:40:40.534Z,2.4
2022-09-10T19:44:41.070Z,1.65
2022-09-10T19:48:40.603Z,1.4
2022-09-10T19:52:40.425Z,1.8
2022-09-10T19:56:40.486Z,2.03
2022-09-10T20:00:46.965Z,2.08
2022-09-10T20:04:40.514Z,2.6
2022-09-10T20:08:40.542Z,3.05
2022-09-10T20:12:40.593Z,3
2022-09-10T20:16:39.296Z,2.2
2022-09-10T20:20:40.494Z,2.22
2022-09-10T20:24:40.061Z,1.95
2022-09-10T20:28:40.996Z,2.4
2022-09-10T20:32:39.931Z,1.98
2022-09-10T20:36:40.670Z,1.98
2022-09-10T20:40:40.734Z,2.22
2022-09-10T20:44:40.423Z,2.83
2022-09-10T20:48:40.924Z,2.55
2022-09-10T20:52:40.531Z,2.37
2022-09-10T20:56:40.464Z,2.47
2022-09-10T21:00:40.520Z,3.45
2022-09-10T21:04:40.518Z,2.87
2022-09-10T21:08:40.600Z,2.95
2022-09-10T21:12:40.683Z,3.4
2022-09-10T21:16:40.820Z,3.7
2022-09-10T21:20:40.783Z,4.1
2022-09-10T21:24:40.459Z,3.8
2022-09-10T21:28:41.276Z,3.87
2022-09-10T21:32:40.541Z,4.05
2022-09-10T21:36:40.516Z,4.3
2022-09-10T21:40:40.637Z,4
2022-09-10T21:44:40.487Z,4.45
2022-09-10T21:48:40.363Z,3.9
2022-09-10T21:52:40.516Z,3.65
2022-09-10T21:56:40.319Z,3.78
2022-09-10T22:00:39.810Z,4.47
2022-09-10T22:04:40.709Z,4.6
2022-09-10T22:08:40.671Z,4.22
2022-09-10T22:12:40.522Z,4.37
2022-09-10T22:16:40.549Z,4.9
2022-09-10T22:20:40.546Z,4.43
2022-09-10T22:24:40.883Z,3.97
2022-09-10T22:28:40.532Z,4.53
2022-09-10T22:32:40.511Z,4.6
2022-09-10T22:36:40.842Z,5.1
2022-09-10T22:40:40.739Z,4.8
2022-09-10T22:44:40.480Z,4.65
2022-09-10T22:48:40.587Z,4.9
2022-09-10T22:52:40.533Z,4.55
2022-09-10T22:56:40.466Z,4.35
2022-09-10T23:00:40.512Z,4.7
2022-09-10T23:04:40.483Z,4.05
2022-09-10T23:08:40.603Z,3.95
2022-09-10T23:12:40.524Z,3.78
2022-09-10T23:16:40.717Z,4.07
2022-09-10T23:20:40.232Z,4.28
2022-09-10T23:24:40.508Z,4.1
2022-09-10T23:28:40.484Z,4
2022-09-10T23:32:40.662Z,4.32
2022-09-10T23:36:40.624Z,3.95
2022-09-10T23:40:40.543Z,5.47
2022-09-10T23:44:40.482Z,5.18
2022-09-10T23:48:40.506Z,5.18
2022-09-10T23:52:40.510Z,5.4
2022-09-10T23:56:40.945Z,5.53
